Time;durP1;ratioP1;P1;durP2;ratioP2;P2;SDS_P1;SDS_P2;PMS_P1;PMS_P2;Temp;Humidity;BMP_temperature;BMP_pressure;BME280_temperature;BME280_humidity;BME280_pressure;Samples;Min_cycle;Max_cycle;Signal;HPM_P1;HPM_P2
2023/09/28 00:00:39;;;;;;;14.05;7.60;;;;;;;;;;5088855;28;20032;-72
2023/09/28 00:03:07;;;;;;;10.85;7.45;;;;;;;;;;5076157;28;20028;-74
2023/09/28 00:05:34;;;;;;;15.93;7.85;;;;;;;;;;5081059;28;20023;-72
2023/09/28 00:08:00;;;;;;;12.15;7.97;;;;;;;;;;5072934;28;20025;-73
2023/09/28 00:10:26;;;;;;;15.18;7.60;;;;;;;;;;5072881;28;20086;-73
2023/09/28 00:12:54;;;;;;;11.80;8.40;;;;;;;;;;5072975;28;20035;-73
2023/09/28 00:15:20;;;;;;;12.57;7.47;;;;;;;;;;5072778;28;20040;-76
2023/09/28 00:17:49;;;;;;;16.65;7.70;;;;;;;;;;5071175;28;20423;-73
2023/09/28 00:20:22;;;;;;;15.93;7.32;;;;;;;;;;5072435;28;20079;-73
2023/09/28 00:22:55;;;;;;;19.27;7.82;;;;;;;;;;5072672;28;20021;-73
2023/09/28 00:25:22;;;;;;;11.70;7.28;;;;;;;;;;5072474;28;20021;-73
2023/09/28 00:27:50;;;;;;;12.82;7.53;;;;;;;;;;5072416;28;20028;-73
2023/09/28 00:30:19;;;;;;;15.68;7.95;;;;;;;;;;5072490;28;20054;-73
2023/09/28 00:32:52;;;;;;;11.38;7.13;;;;;;;;;;5072413;28;20032;-73
2023/09/28 00:35:19;;;;;;;14.38;7.63;;;;;;;;;;5072197;28;20029;-73
2023/09/28 00:37:45;;;;;;;13.68;7.85;;;;;;;;;;5072044;28;20402;-73
2023/09/28 00:40:27;;;;;;;10.52;7.20;;;;;;;;;;5072906;28;20048;-73
2023/09/28 00:42:54;;;;;;;16.02;7.60;;;;;;;;;;5072827;28;20495;-74
2023/09/28 00:45:21;;;;;;;12.02;7.15;;;;;;;;;;5072613;28;20024;-74
2023/09/28 00:47:49;;;;;;;14.05;7.40;;;;;;;;;;5071985;28;20049;-74
2023/09/28 00:50:16;;;;;;;14.23;8.07;;;;;;;;;;5072152;28;20407;-74
2023/09/28 00:52:43;;;;;;;13.50;7.30;;;;;;;;;;5072429;28;20467;-74
2023/09/28 00:55:10;;;;;;;11.23;7.68;;;;;;;;;;5072327;28;20499;-75
2023/09/28 00:57:38;;;;;;;15.82;8.07;;;;;;;;;;5072023;28;20110;-75
2023/09/28 01:00:18;;;;;;;13.02;7.53;;;;;;;;;;5071393;28;20060;-75
2023/09/28 01:02:44;;;;;;;13.63;7.93;;;;;;;;;;5055925;28;20035;-74
2023/09/28 01:05:11;;;;;;;11.65;7.78;;;;;;;;;;5072331;28;20027;-76
2023/09/28 01:07:39;;;;;;;17.65;8.10;;;;;;;;;;5071803;28;20161;-74
2023/09/28 01:10:07;;;;;;;13.65;7.82;;;;;;;;;;5071902;28;20063;-73
2023/09/28 01:12:34;;;;;;;14.93;8.10;;;;;;;;;;5071806;28;20035;-74
2023/09/28 01:15:00;;;;;;;14.93;9.30;;;;;;;;;;5071817;28;20031;-74
2023/09/28 01:17:29;;;;;;;13.55;8.38;;;;;;;;;;5071382;28;20046;-74
2023/09/28 01:19:56;;;;;;;13.65;9.20;;;;;;;;;;5071763;28;20045;-76
2023/09/28 01:22:22;;;;;;;13.23;8.30;;;;;;;;;;5071743;28;20031;-75
2023/09/28 01:24:48;;;;;;;12.93;9.35;;;;;;;;;;5071613;28;20043;-75
2023/09/28 01:27:14;;;;;;;15.73;8.85;;;;;;;;;;5071484;28;20029;-74
2023/09/28 01:29:40;;;;;;;15.20;9.23;;;;;;;;;;5071780;28;20036;-75
2023/09/28 01:32:06;;;;;;;16.17;9.23;;;;;;;;;;5071655;28;20028;-73
2023/09/28 01:34:32;;;;;;;16.65;9.05;;;;;;;;;;5071636;28;20112;-74
2023/09/28 01:36:59;;;;;;;15.25;8.85;;;;;;;;;;5071314;28;20511;-74
2023/09/28 01:39:26;;;;;;;14.63;10.07;;;;;;;;;;5071452;28;20112;-74
2023/09/28 01:41:52;;;;;;;18.85;9.77;;;;;;;;;;5071413;28;20052;-74
2023/09/28 01:44:18;;;;;;;13.43;9.30;;;;;;;;;;5071551;28;20083;-74
2023/09/28 01:46:44;;;;;;;18.65;9.27;;;;;;;;;;5071149;28;20020;-73
2023/09/28 01:49:10;;;;;;;19.23;9.77;;;;;;;;;;5071601;28;20027;-73
2023/09/28 01:51:36;;;;;;;14.48;9.63;;;;;;;;;;5071410;28;20032;-73
2023/09/28 01:54:02;;;;;;;15.13;9.88;;;;;;;;;;5071536;28;20443;-74
2023/09/28 01:56:28;;;;;;;17.75;10.43;;;;;;;;;;5071266;28;20055;-74
2023/09/28 01:58:54;;;;;;;16.15;9.98;;;;;;;;;;5071310;28;20494;-74
2023/09/28 02:01:28;;;;;;;16.48;9.50;;;;;;;;;;5071528;28;20024;-74
2023/09/28 02:03:54;;;;;;;21.83;10.35;;;;;;;;;;5071498;28;20017;-74
2023/09/28 02:06:20;;;;;;;15.93;10.18;;;;;;;;;;5072006;28;20027;-74
2023/09/28 02:08:46;;;;;;;14.82;10.20;;;;;;;;;;5071793;28;20499;-74
2023/09/28 02:11:12;;;;;;;16.23;9.02;;;;;;;;;;5073723;28;20020;-73
2023/09/28 02:13:38;;;;;;;16.50;10.15;;;;;;;;;;5075105;28;20031;-73
2023/09/28 02:16:08;;;;;;;18.65;10.95;;;;;;;;;;5074670;28;20029;-73
2023/09/28 02:18:34;;;;;;;14.40;9.48;;;;;;;;;;5076322;28;20456;-74
2023/09/28 02:21:00;;;;;;;17.90;10.18;;;;;;;;;;5076854;28;20510;-74
2023/09/28 02:23:26;;;;;;;16.83;10.05;;;;;;;;;;5078336;28;20029;-74
2023/09/28 02:25:52;;;;;;;18.58;10.50;;;;;;;;;;5077021;28;20028;-73
2023/09/28 02:28:18;;;;;;;15.68;9.98;;;;;;;;;;5077512;28;20029;-74
2023/09/28 02:30:44;;;;;;;18.80;10.13;;;;;;;;;;5079322;28;20033;-73
2023/09/28 02:33:11;;;;;;;15.95;10.48;;;;;;;;;;5079685;28;20028;-75
2023/09/28 02:35:37;;;;;;;16.40;10.70;;;;;;;;;;5075596;28;20416;-73
2023/09/28 02:38:03;;;;;;;16.90;10.68;;;;;;;;;;5062016;28;20032;-73
2023/09/28 02:40:29;;;;;;;14.35;10.98;;;;;;;;;;5074492;28;20021;-74
2023/09/28 02:42:57;;;;;;;15.70;10.07;;;;;;;;;;5059156;28;20369;-77
2023/09/28 02:45:23;;;;;;;17.88;11.40;;;;;;;;;;5058338;28;20025;-74
2023/09/28 02:47:50;;;;;;;14.48;10.65;;;;;;;;;;5061284;28;20037;-74
2023/09/28 02:50:17;;;;;;;18.55;11.35;;;;;;;;;;5059225;28;20025;-74
2023/09/28 02:52:46;;;;;;;17.17;11.30;;;;;;;;;;5056779;28;20044;-74
2023/09/28 02:55:13;;;;;;;18.88;11.73;;;;;;;;;;5054953;28;20108;-73
2023/09/28 02:57:39;;;;;;;16.90;10.38;;;;;;;;;;5053989;28;20075;-74
2023/09/28 03:00:28;;;;;;;25.80;11.13;;;;;;;;;;5053161;28;20021;-73
2023/09/28 03:02:55;;;;;;;19.58;11.27;;;;;;;;;;5067573;28;20036;-73
2023/09/28 03:05:21;;;;;;;22.30;12.15;;;;;;;;;;5074163;28;20391;-73
2023/09/28 03:07:47;;;;;;;14.70;11.77;;;;;;;;;;5074620;28;20036;-75
2023/09/28 03:10:13;;;;;;;18.63;12.00;;;;;;;;;;5076050;28;20032;-73
2023/09/28 03:12:40;;;;;;;19.30;12.60;;;;;;;;;;5073899;28;20047;-73
2023/09/28 03:15:10;;;;;;;19.50;12.13;;;;;;;;;;5073606;28;20025;-74
2023/09/28 03:17:37;;;;;;;16.10;12.63;;;;;;;;;;5073211;28;20020;-73
2023/09/28 03:20:17;;;;;;;21.17;12.75;;;;;;;;;;5074974;28;20059;-73
2023/09/28 03:22:44;;;;;;;22.45;12.18;;;;;;;;;;5074986;28;20013;-74
2023/09/28 03:25:16;;;;;;;19.52;13.57;;;;;;;;;;5076796;28;20066;-73
2023/09/28 03:27:43;;;;;;;19.75;12.43;;;;;;;;;;5076136;28;20519;-73
2023/09/28 03:30:10;;;;;;;21.48;12.82;;;;;;;;;;5075296;28;20356;-74
2023/09/28 03:32:37;;;;;;;25.42;11.98;;;;;;;;;;5073532;28;20024;-73
2023/09/28 03:35:04;;;;;;;20.52;12.55;;;;;;;;;;5072792;28;20025;-73
2023/09/28 03:37:30;;;;;;;20.17;13.18;;;;;;;;;;5072250;28;20032;-73
2023/09/28 03:39:58;;;;;;;22.60;14.45;;;;;;;;;;5072370;28;20020;-72
2023/09/28 03:42:25;;;;;;;21.92;13.25;;;;;;;;;;5072710;28;20047;-74
2023/09/28 03:44:52;;;;;;;18.00;14.20;;;;;;;;;;5074035;28;20124;-72
2023/09/28 03:47:19;;;;;;;22.10;13.65;;;;;;;;;;5072776;28;20356;-72
2023/09/28 03:49:45;;;;;;;20.85;14.23;;;;;;;;;;5072193;28;20394;-71
2023/09/28 03:52:11;;;;;;;19.45;13.85;;;;;;;;;;5072232;28;20032;-71
2023/09/28 03:54:37;;;;;;;22.95;14.38;;;;;;;;;;5073564;28;20028;-71
2023/09/28 03:57:03;;;;;;;21.33;14.35;;;;;;;;;;5072414;28;20502;-72
2023/09/28 03:59:29;;;;;;;24.98;13.80;;;;;;;;;;5072840;28;20027;-76
2023/09/28 04:01:55;;;;;;;18.80;14.52;;;;;;;;;;5072440;28;20032;-72
2023/09/28 04:04:21;;;;;;;23.65;13.43;;;;;;;;;;5074647;28;20020;-73
2023/09/28 04:06:48;;;;;;;23.80;15.00;;;;;;;;;;5075723;28;20398;-72
2023/09/28 04:09:15;;;;;;;23.85;14.23;;;;;;;;;;5075115;28;20023;-73
2023/09/28 04:11:41;;;;;;;22.40;13.40;;;;;;;;;;5074653;28;20013;-72
2023/09/28 04:14:08;;;;;;;29.85;14.93;;;;;;;;;;5074497;28;20490;-73
2023/09/28 04:16:34;;;;;;;18.23;13.43;;;;;;;;;;5073174;28;20035;-72
2023/09/28 04:19:00;;;;;;;23.50;14.63;;;;;;;;;;5071808;28;20058;-73
2023/09/28 04:21:26;;;;;;;23.40;14.10;;;;;;;;;;5075070;28;20021;-74
2023/09/28 04:23:53;;;;;;;23.70;13.48;;;;;;;;;;5077377;28;20024;-73
2023/09/28 04:26:19;;;;;;;22.77;13.68;;;;;;;;;;5080969;28;20043;-74
2023/09/28 04:28:45;;;;;;;20.33;13.57;;;;;;;;;;5081000;28;20597;-73
2023/09/28 04:31:11;;;;;;;21.67;13.90;;;;;;;;;;5084611;28;20074;-74
2023/09/28 04:33:37;;;;;;;19.90;13.43;;;;;;;;;;5077556;28;20036;-73
2023/09/28 04:36:03;;;;;;;22.02;13.85;;;;;;;;;;5069046;28;20039;-75
2023/09/28 04:38:29;;;;;;;25.05;14.07;;;;;;;;;;5077951;28;20475;-75
2023/09/28 04:40:55;;;;;;;22.02;13.88;;;;;;;;;;5072837;28;20113;-76
2023/09/28 04:43:21;;;;;;;20.20;14.18;;;;;;;;;;5077592;28;20476;-75
2023/09/28 04:45:47;;;;;;;26.35;14.38;;;;;;;;;;5072815;28;20055;-75
2023/09/28 04:48:14;;;;;;;18.48;12.75;;;;;;;;;;5073923;28;20307;-76
2023/09/28 04:50:40;;;;;;;18.70;12.75;;;;;;;;;;5076354;28;20024;-77
2023/09/28 04:53:06;;;;;;;20.45;12.48;;;;;;;;;;5069370;28;20033;-76
2023/09/28 04:55:32;;;;;;;24.08;13.88;;;;;;;;;;5074884;28;20031;-76
2023/09/28 04:57:58;;;;;;;20.30;12.65;;;;;;;;;;5074202;28;20391;-76
2023/09/28 05:00:24;;;;;;;23.85;12.45;;;;;;;;;;5073069;28;20016;-76
2023/09/28 05:02:50;;;;;;;22.00;12.93;;;;;;;;;;5080189;28;20431;-72
2023/09/28 05:05:16;;;;;;;22.30;12.70;;;;;;;;;;5085718;28;20094;-72
2023/09/28 05:07:42;;;;;;;21.52;13.25;;;;;;;;;;5095774;28;20028;-74
2023/09/28 05:10:08;;;;;;;17.90;12.57;;;;;;;;;;5092067;28;20031;-72
2023/09/28 05:12:34;;;;;;;23.40;12.80;;;;;;;;;;5092953;28;20032;-72
2023/09/28 05:15:01;;;;;;;23.30;12.60;;;;;;;;;;5091985;28;20065;-73
2023/09/28 05:17:28;;;;;;;23.67;13.40;;;;;;;;;;5091565;28;20031;-71
2023/09/28 05:19:54;;;;;;;17.58;12.00;;;;;;;;;;5077685;28;20086;-79
2023/09/28 05:22:20;;;;;;;19.00;12.52;;;;;;;;;;5074071;28;20504;-79
2023/09/28 05:24:46;;;;;;;23.85;13.60;;;;;;;;;;5077460;28;20027;-75
2023/09/28 05:27:13;;;;;;;22.38;12.82;;;;;;;;;;5072154;28;20020;-75
2023/09/28 05:29:39;;;;;;;21.35;12.70;;;;;;;;;;5068802;28;20039;-76
2023/09/28 05:32:06;;;;;;;24.98;13.15;;;;;;;;;;5070996;28;20038;-74
2023/09/28 05:34:32;;;;;;;22.65;12.43;;;;;;;;;;5075662;28;20024;-74
2023/09/28 05:36:58;;;;;;;19.35;11.90;;;;;;;;;;5074266;28;20091;-75
2023/09/28 05:39:24;;;;;;;17.83;11.90;;;;;;;;;;5072971;28;20032;-77
2023/09/28 05:41:50;;;;;;;21.15;13.10;;;;;;;;;;5071989;28;20074;-74
2023/09/28 05:44:16;;;;;;;19.00;11.63;;;;;;;;;;5080473;28;20024;-75
2023/09/28 05:46:42;;;;;;;22.77;12.93;;;;;;;;;;5072914;28;20047;-75
2023/09/28 05:49:08;;;;;;;20.80;12.13;;;;;;;;;;5076663;28;20104;-74
2023/09/28 05:51:34;;;;;;;19.48;11.65;;;;;;;;;;5076368;28;20087;-73
2023/09/28 05:54:00;;;;;;;18.13;11.10;;;;;;;;;;5077593;28;20103;-74
2023/09/28 05:56:26;;;;;;;21.05;12.10;;;;;;;;;;5085283;28;20029;-74
2023/09/28 05:58:52;;;;;;;24.38;11.82;;;;;;;;;;5075260;28;20025;-74
2023/09/28 06:01:19;;;;;;;23.27;11.48;;;;;;;;;;5082731;28;20020;-78
2023/09/28 06:03:45;;;;;;;24.58;12.05;;;;;;;;;;5077508;28;20634;-73
2023/09/28 06:06:17;;;;;;;17.58;12.13;;;;;;;;;;5075144;28;20025;-72
2023/09/28 06:08:44;;;;;;;22.25;12.57;;;;;;;;;;5076091;28;20031;-74
2023/09/28 06:11:11;;;;;;;19.73;11.43;;;;;;;;;;5078424;28;20525;-77
2023/09/28 06:13:39;;;;;;;40.25;13.15;;;;;;;;;;5080353;28;20050;-72
2023/09/28 06:16:05;;;;;;;21.70;11.73;;;;;;;;;;5086746;28;20036;-73
2023/09/28 06:18:31;;;;;;;22.00;12.88;;;;;;;;;;5099817;28;20028;-73
2023/09/28 06:20:56;;;;;;;20.92;11.27;;;;;;;;;;5099571;28;20027;-75
2023/09/28 06:23:22;;;;;;;20.08;10.43;;;;;;;;;;5096801;28;20387;-76
2023/09/28 06:25:48;;;;;;;15.00;9.45;;;;;;;;;;5093561;28;20024;-73
2023/09/28 06:28:15;;;;;;;18.98;10.07;;;;;;;;;;5094438;28;20028;-74
2023/09/28 06:30:41;;;;;;;22.33;9.38;;;;;;;;;;5096199;28;20399;-76
2023/09/28 06:33:06;;;;;;;19.30;9.85;;;;;;;;;;5095028;28;20406;-73
2023/09/28 06:35:32;;;;;;;26.05;10.23;;;;;;;;;;5095651;28;20024;-76
2023/09/28 06:38:00;;;;;;;19.42;8.73;;;;;;;;;;5097568;28;20032;-75
2023/09/28 06:40:26;;;;;;;17.75;8.85;;;;;;;;;;5095062;28;20028;-75
2023/09/28 06:42:52;;;;;;;15.95;8.90;;;;;;;;;;5094389;28;20073;-73
2023/09/28 06:45:18;;;;;;;13.75;8.07;;;;;;;;;;5094893;28;20031;-78
2023/09/28 06:47:44;;;;;;;17.70;9.20;;;;;;;;;;5095951;28;20106;-77
2023/09/28 06:50:11;;;;;;;16.20;9.00;;;;;;;;;;5096760;28;20032;-76
2023/09/28 06:52:37;;;;;;;16.50;8.88;;;;;;;;;;5095471;28;20502;-70
2023/09/28 06:55:04;;;;;;;14.77;8.13;;;;;;;;;;5094425;28;20027;-72
2023/09/28 06:57:30;;;;;;;14.55;8.00;;;;;;;;;;5096109;28;20020;-73
2023/09/28 07:00:01;;;;;;;17.52;8.25;;;;;;;;;;5109675;28;20024;-77
2023/09/28 07:02:27;;;;;;;19.15;7.90;;;;;;;;;;5102044;28;20119;-70
2023/09/28 07:04:53;;;;;;;13.00;8.15;;;;;;;;;;5095815;28;20052;-72
2023/09/28 07:07:19;;;;;;;13.27;8.02;;;;;;;;;;5094971;28;20467;-74
2023/09/28 07:09:45;;;;;;;11.75;7.53;;;;;;;;;;5095307;28;20054;-75
2023/09/28 07:12:11;;;;;;;14.57;8.27;;;;;;;;;;5099145;28;20024;-76
2023/09/28 07:14:37;;;;;;;22.83;13.68;;;;;;;;;;5095545;28;20364;-75
2023/09/28 07:17:05;;;;;;;19.80;7.93;;;;;;;;;;5095262;28;20024;-76
2023/09/28 07:19:32;;;;;;;14.77;8.85;;;;;;;;;;5103445;28;20016;-75
2023/09/28 07:21:58;;;;;;;12.95;7.68;;;;;;;;;;5094528;28;20020;-73
2023/09/28 07:24:26;;;;;;;14.32;8.65;;;;;;;;;;5094007;28;20020;-73
2023/09/28 07:26:52;;;;;;;18.70;10.85;;;;;;;;;;5093734;28;20020;-73
2023/09/28 07:29:18;;;;;;;13.05;7.13;;;;;;;;;;5094381;28;20032;-74
2023/09/28 07:31:44;;;;;;;15.98;7.47;;;;;;;;;;5097893;28;20024;-76
2023/09/28 07:34:10;;;;;;;14.05;7.38;;;;;;;;;;5093797;28;20063;-73
2023/09/28 07:36:36;;;;;;;21.35;12.32;;;;;;;;;;5093698;28;20024;-76
2023/09/28 07:39:03;;;;;;;20.98;8.07;;;;;;;;;;5093506;28;20529;-72
2023/09/28 07:41:29;;;;;;;14.75;7.30;;;;;;;;;;5096349;28;20474;-74
2023/09/28 07:43:55;;;;;;;11.30;7.47;;;;;;;;;;5096184;28;20036;-75
2023/09/28 07:46:21;;;;;;;13.50;7.10;;;;;;;;;;5083675;28;20031;-76
2023/09/28 07:48:48;;;;;;;12.95;7.53;;;;;;;;;;5075775;28;20081;-74
2023/09/28 07:51:14;;;;;;;20.65;10.25;;;;;;;;;;5074863;28;20088;-75
2023/09/28 07:53:40;;;;;;;16.35;7.35;;;;;;;;;;5082153;28;20032;-75
2023/09/28 07:56:06;;;;;;;14.60;7.70;;;;;;;;;;5091203;28;20029;-76
2023/09/28 07:58:32;;;;;;;17.63;7.90;;;;;;;;;;5077041;28;20024;-76
2023/09/28 08:00:58;;;;;;;14.20;7.75;;;;;;;;;;5077037;28;20035;-75
2023/09/28 08:03:26;;;;;;;12.80;7.53;;;;;;;;;;5074938;28;20106;-76
2023/09/28 08:05:54;;;;;;;16.63;8.32;;;;;;;;;;5074724;28;20012;-74
2023/09/28 08:08:20;;;;;;;12.05;7.43;;;;;;;;;;5070535;28;20084;-73
2023/09/28 08:10:47;;;;;;;13.10;7.60;;;;;;;;;;5073975;28;20052;-75
2023/09/28 08:13:15;;;;;;;11.00;7.07;;;;;;;;;;5070097;28;20032;-77
2023/09/28 08:15:41;;;;;;;13.20;7.72;;;;;;;;;;5075437;28;20029;-77
2023/09/28 08:18:08;;;;;;;13.70;6.35;;;;;;;;;;5075171;28;20081;-74
2023/09/28 08:20:34;;;;;;;10.00;6.13;;;;;;;;;;5063875;28;20025;-74
2023/09/28 08:23:00;;;;;;;11.18;6.20;;;;;;;;;;5052676;28;20028;-74
2023/09/28 08:25:26;;;;;;;10.73;6.20;;;;;;;;;;5061490;28;20025;-74
2023/09/28 08:27:52;;;;;;;14.40;6.07;;;;;;;;;;5073183;28;20025;-75
2023/09/28 08:30:19;;;;;;;15.05;6.22;;;;;;;;;;5075093;28;20472;-75
2023/09/28 08:32:48;;;;;;;9.05;5.70;;;;;;;;;;5081913;28;20346;-74
2023/09/28 08:35:15;;;;;;;12.27;5.47;;;;;;;;;;5078971;28;20033;-74
2023/09/28 08:37:41;;;;;;;10.45;4.72;;;;;;;;;;5080320;28;20027;-75
2023/09/28 08:40:08;;;;;;;12.73;6.25;;;;;;;;;;5077121;28;20165;-75
2023/09/28 08:42:35;;;;;;;9.07;4.90;;;;;;;;;;5078190;28;20024;-76
2023/09/28 08:45:02;;;;;;;9.60;5.07;;;;;;;;;;5075370;28;20043;-74
2023/09/28 08:47:41;;;;;;;11.20;4.82;;;;;;;;;;5074153;28;20028;-73
2023/09/28 08:50:08;;;;;;;12.02;5.32;;;;;;;;;;5072022;28;20059;-74
2023/09/28 08:52:35;;;;;;;8.23;4.90;;;;;;;;;;5072051;28;20033;-76
2023/09/28 08:55:03;;;;;;;9.70;5.20;;;;;;;;;;5072181;28;20036;-74
2023/09/28 08:57:30;;;;;;;12.13;5.18;;;;;;;;;;5073197;28;20020;-75
2023/09/28 08:59:58;;;;;;;10.15;4.47;;;;;;;;;;5075731;28;20039;-74
2023/09/28 09:02:24;;;;;;;12.40;4.95;;;;;;;;;;5073806;28;20028;-74
2023/09/28 09:04:50;;;;;;;10.52;5.22;;;;;;;;;;5071764;28;20059;-74
2023/09/28 09:07:17;;;;;;;18.15;5.25;;;;;;;;;;5071890;28;20028;-74
2023/09/28 09:09:45;;;;;;;13.45;5.55;;;;;;;;;;5071938;28;20040;-74
2023/09/28 09:12:11;;;;;;;16.88;5.20;;;;;;;;;;5071990;28;20035;-73
2023/09/28 09:14:40;;;;;;;10.93;4.75;;;;;;;;;;5075228;28;20138;-78
2023/09/28 09:17:07;;;;;;;14.98;5.05;;;;;;;;;;5074232;28;20032;-77
2023/09/28 09:19:34;;;;;;;16.98;5.53;;;;;;;;;;5077256;28;20077;-80
2023/09/28 09:22:00;;;;;;;14.15;4.93;;;;;;;;;;5079967;28;20017;-79
2023/09/28 09:24:26;;;;;;;12.27;4.82;;;;;;;;;;5075755;28;20098;-78
2023/09/28 09:26:53;;;;;;;12.05;5.00;;;;;;;;;;5073784;28;20475;-77
2023/09/28 09:29:19;;;;;;;13.32;5.07;;;;;;;;;;5073250;28;20028;-78
2023/09/28 09:31:47;;;;;;;7.88;5.13;;;;;;;;;;5075934;28;20024;-78
2023/09/28 09:34:14;;;;;;;12.38;4.97;;;;;;;;;;5072287;28;20017;-77
2023/09/28 09:36:43;;;;;;;15.27;4.70;;;;;;;;;;5071136;28;20032;-75
2023/09/28 09:39:20;;;;;;;10.52;4.45;;;;;;;;;;5071784;28;20025;-74
2023/09/28 09:41:46;;;;;;;9.00;4.30;;;;;;;;;;5071948;28;20073;-73
2023/09/28 09:44:23;;;;;;;9.68;4.40;;;;;;;;;;5074081;28;20095;-74
2023/09/28 09:46:50;;;;;;;8.32;4.07;;;;;;;;;;5073584;28;20318;-76
2023/09/28 09:49:19;;;;;;;12.00;4.03;;;;;;;;;;5070153;28;20024;-74
2023/09/28 09:51:46;;;;;;;9.57;3.88;;;;;;;;;;5071560;28;20492;-74
2023/09/28 09:54:13;;;;;;;9.38;3.88;;;;;;;;;;5071471;28;20369;-74
2023/09/28 09:56:43;;;;;;;9.18;4.55;;;;;;;;;;5071488;28;20095;-74
2023/09/28 09:59:11;;;;;;;7.32;3.67;;;;;;;;;;5071250;28;20032;-74
2023/09/28 10:01:39;;;;;;;10.63;3.75;;;;;;;;;;5071616;28;20050;-80
2023/09/28 10:04:12;;;;;;;13.73;4.07;;;;;;;;;;5072626;28;20106;-73
2023/09/28 10:06:38;;;;;;;14.82;4.72;;;;;;;;;;5071149;28;20021;-72
2023/09/28 10:09:04;;;;;;;9.35;4.05;;;;;;;;;;5071442;28;20387;-72
2023/09/28 10:11:31;;;;;;;13.18;3.55;;;;;;;;;;5071511;28;20563;-73
2023/09/28 10:13:58;;;;;;;10.85;3.55;;;;;;;;;;5073236;28;20032;-74
2023/09/28 10:16:25;;;;;;;11.77;4.47;;;;;;;;;;5073561;28;20563;-74
2023/09/28 10:18:52;;;;;;;8.10;3.65;;;;;;;;;;5071597;28;20031;-74
2023/09/28 10:21:18;;;;;;;10.65;3.65;;;;;;;;;;5071396;28;20019;-73
2023/09/28 10:23:47;;;;;;;17.52;4.03;;;;;;;;;;5074087;28;20099;-75
2023/09/28 10:26:16;;;;;;;10.98;4.30;;;;;;;;;;5073114;28;20055;-75
2023/09/28 10:29:03;;;;;;;8.68;4.07;;;;;;;;;;5073376;28;20101;-76
2023/09/28 10:31:29;;;;;;;12.57;3.47;;;;;;;;;;5074597;28;20506;-74
2023/09/28 10:34:02;;;;;;;10.38;3.47;;;;;;;;;;5074467;28;20495;-73
2023/09/28 10:36:30;;;;;;;17.70;4.45;;;;;;;;;;5076781;28;20024;-76
2023/09/28 10:39:15;;;;;;;10.02;3.70;;;;;;;;;;5075949;28;20039;-75
2023/09/28 10:41:46;;;;;;;9.52;3.72;;;;;;;;;;5074914;28;20025;-74
2023/09/28 10:44:13;;;;;;;9.95;3.55;;;;;;;;;;5073956;28;20082;-74
2023/09/28 10:46:42;;;;;;;13.80;3.33;;;;;;;;;;5075046;28;20036;-75
2023/09/28 10:49:08;;;;;;;9.43;3.50;;;;;;;;;;5075748;28;20104;-74
2023/09/28 10:51:34;;;;;;;11.00;3.65;;;;;;;;;;5076002;28;20301;-76
2023/09/28 10:54:04;;;;;;;9.23;3.63;;;;;;;;;;5076203;28;20025;-76
2023/09/28 10:56:30;;;;;;;11.43;4.05;;;;;;;;;;5076219;28;20077;-74
2023/09/28 10:59:02;;;;;;;9.07;3.40;;;;;;;;;;5076895;28;20075;-76
2023/09/28 11:01:29;;;;;;;13.48;3.97;;;;;;;;;;5079319;28;20040;-77
2023/09/28 11:03:55;;;;;;;12.93;4.00;;;;;;;;;;5076977;28;20017;-75
2023/09/28 11:06:22;;;;;;;13.45;4.25;;;;;;;;;;5074870;28;20029;-73
2023/09/28 11:08:49;;;;;;;10.70;4.32;;;;;;;;;;5074088;28;20099;-74
2023/09/28 11:11:17;;;;;;;14.68;4.57;;;;;;;;;;5073825;28;20031;-73
2023/09/28 11:13:44;;;;;;;12.68;4.50;;;;;;;;;;5073695;28;20130;-75
2023/09/28 11:16:11;;;;;;;11.30;3.75;;;;;;;;;;5073776;28;20033;-75
2023/09/28 11:18:38;;;;;;;8.20;4.05;;;;;;;;;;5074238;28;20024;-75
2023/09/28 11:21:05;;;;;;;12.90;4.20;;;;;;;;;;5074374;28;20048;-75
2023/09/28 11:23:31;;;;;;;13.27;4.10;;;;;;;;;;5077064;28;20028;-76
2023/09/28 11:25:58;;;;;;;10.35;3.90;;;;;;;;;;5081623;28;20025;-75
2023/09/28 11:28:24;;;;;;;15.30;4.47;;;;;;;;;;5082143;28;20029;-74
2023/09/28 11:31:09;;;;;;;9.35;3.97;;;;;;;;;;5075083;28;20024;-75
2023/09/28 11:33:38;;;;;;;11.30;4.35;;;;;;;;;;5074410;28;20028;-76
2023/09/28 11:36:05;;;;;;;10.52;5.25;;;;;;;;;;5075293;28;20033;-75
2023/09/28 11:38:32;;;;;;;11.13;4.60;;;;;;;;;;5076567;28;20028;-75
2023/09/28 11:40:58;;;;;;;15.05;3.90;;;;;;;;;;5077690;28;20024;-75
2023/09/28 11:43:24;;;;;;;11.35;3.83;;;;;;;;;;5079709;28;20434;-74
2023/09/28 11:45:51;;;;;;;12.07;4.40;;;;;;;;;;5080065;28;20056;-73
2023/09/28 11:48:19;;;;;;;12.85;4.15;;;;;;;;;;5074107;28;20410;-73
2023/09/28 11:50:45;;;;;;;9.82;3.75;;;;;;;;;;5073721;28;20024;-75
2023/09/28 11:53:11;;;;;;;14.27;4.90;;;;;;;;;;5073807;28;20039;-74
2023/09/28 11:55:41;;;;;;;10.38;4.25;;;;;;;;;;5073506;28;20028;-75
2023/09/28 11:58:11;;;;;;;13.90;4.75;;;;;;;;;;5075426;28;20420;-75
2023/09/28 12:00:37;;;;;;;14.25;4.53;;;;;;;;;;5074938;28;20064;-74
2023/09/28 12:03:04;;;;;;;13.38;4.47;;;;;;;;;;5075913;28;20157;-74
2023/09/28 12:05:31;;;;;;;15.15;4.65;;;;;;;;;;5074762;28;20028;-75
2023/09/28 12:07:58;;;;;;;13.43;4.03;;;;;;;;;;5075309;28;20399;-75
2023/09/28 12:10:24;;;;;;;11.70;4.03;;;;;;;;;;5076712;28;20035;-78
2023/09/28 12:12:55;;;;;;;10.15;4.30;;;;;;;;;;5075413;28;20309;-76
2023/09/28 12:15:21;;;;;;;10.68;4.22;;;;;;;;;;5075302;28;20097;-75
2023/09/28 12:17:48;;;;;;;14.43;3.90;;;;;;;;;;5071737;28;20025;-75
2023/09/28 12:20:14;;;;;;;16.77;4.65;;;;;;;;;;5072647;28;20028;-74
2023/09/28 12:22:42;;;;;;;12.55;4.13;;;;;;;;;;5072412;28;20017;-73
2023/09/28 12:25:10;;;;;;;13.32;4.43;;;;;;;;;;5075172;28;20035;-76
2023/09/28 12:27:36;;;;;;;14.50;4.25;;;;;;;;;;5072752;28;20058;-75
2023/09/28 12:30:03;;;;;;;12.10;4.20;;;;;;;;;;5072273;28;20166;-74
2023/09/28 12:32:30;;;;;;;15.00;4.35;;;;;;;;;;5079365;28;20024;-74
2023/09/28 12:34:56;;;;;;;14.20;4.35;;;;;;;;;;5079730;28;20454;-75
2023/09/28 12:37:22;;;;;;;14.48;4.32;;;;;;;;;;5080191;28;20062;-74
2023/09/28 12:39:50;;;;;;;18.05;4.45;;;;;;;;;;5082623;28;20025;-76
2023/09/28 12:42:16;;;;;;;11.88;4.05;;;;;;;;;;5080622;28;20028;-76
2023/09/28 12:44:43;;;;;;;10.25;4.05;;;;;;;;;;5072458;28;20025;-74
2023/09/28 12:47:09;;;;;;;10.93;3.80;;;;;;;;;;5072152;28;20020;-75
2023/09/28 12:49:35;;;;;;;12.20;4.30;;;;;;;;;;5072269;28;20501;-75
2023/09/28 12:52:02;;;;;;;11.70;3.97;;;;;;;;;;5071677;28;20033;-76
2023/09/28 12:54:29;;;;;;;12.40;4.32;;;;;;;;;;5078206;28;20027;-75
2023/09/28 12:56:55;;;;;;;14.25;4.22;;;;;;;;;;5072623;28;20019;-75
2023/09/28 12:59:21;;;;;;;13.27;4.65;;;;;;;;;;5079228;28;20032;-75
2023/09/28 13:01:47;;;;;;;14.95;5.00;;;;;;;;;;5070874;28;20077;-75
2023/09/28 13:04:14;;;;;;;14.63;4.10;;;;;;;;;;5067462;28;20084;-76
2023/09/28 13:06:40;;;;;;;12.27;4.28;;;;;;;;;;5073276;28;20028;-76
2023/09/28 13:09:06;;;;;;;15.45;4.10;;;;;;;;;;5071163;28;20036;-73
2023/09/28 13:11:36;;;;;;;15.65;4.43;;;;;;;;;;5075387;28;20025;-77
2023/09/28 13:14:02;;;;;;;16.25;3.58;;;;;;;;;;5075161;28;20078;-78
2023/09/28 13:16:29;;;;;;;19.80;4.32;;;;;;;;;;5066751;28;20028;-75
2023/09/28 13:18:55;;;;;;;19.48;4.40;;;;;;;;;;5067712;28;20479;-75
2023/09/28 13:21:23;;;;;;;15.18;4.53;;;;;;;;;;5074911;28;20055;-74
2023/09/28 13:23:49;;;;;;;21.13;4.18;;;;;;;;;;5072604;28;20028;-75
2023/09/28 13:26:15;;;;;;;15.75;4.15;;;;;;;;;;5076888;28;20153;-75
2023/09/28 13:28:41;;;;;;;12.13;4.57;;;;;;;;;;5075602;28;20048;-74
2023/09/28 13:31:08;;;;;;;12.77;4.30;;;;;;;;;;5080618;28;20029;-73
2023/09/28 13:33:37;;;;;;;18.98;4.35;;;;;;;;;;5073717;28;20024;-75
2023/09/28 13:36:05;;;;;;;15.25;4.63;;;;;;;;;;5082159;28;20471;-75
2023/09/28 13:38:32;;;;;;;18.70;4.85;;;;;;;;;;5081328;28;20024;-74
2023/09/28 13:40:58;;;;;;;14.52;5.28;;;;;;;;;;5077447;28;20021;-75
2023/09/28 13:43:24;;;;;;;16.55;5.03;;;;;;;;;;5071299;28;20494;-75
2023/09/28 13:45:50;;;;;;;19.13;4.53;;;;;;;;;;5077114;28;20039;-76
2023/09/28 13:48:16;;;;;;;13.23;3.80;;;;;;;;;;5074524;28;20538;-75
2023/09/28 13:50:44;;;;;;;12.32;4.22;;;;;;;;;;5076663;28;20050;-76
2023/09/28 13:53:10;;;;;;;14.63;4.50;;;;;;;;;;5086023;28;20020;-77
2023/09/28 13:55:36;;;;;;;13.73;4.50;;;;;;;;;;5085000;28;20063;-77
2023/09/28 13:58:02;;;;;;;17.48;4.70;;;;;;;;;;5076741;28;20040;-74
2023/09/28 14:00:31;;;;;;;20.30;5.05;;;;;;;;;;5083452;28;20332;-72
2023/09/28 14:02:58;;;;;;;15.98;4.63;;;;;;;;;;5051684;28;20094;-71
2023/09/28 14:05:25;;;;;;;19.52;4.57;;;;;;;;;;5050176;28;20017;-72
2023/09/28 14:07:51;;;;;;;15.73;4.63;;;;;;;;;;5062010;28;20032;-74
2023/09/28 14:10:19;;;;;;;20.35;4.75;;;;;;;;;;5072052;28;20350;-74
2023/09/28 14:12:45;;;;;;;15.73;4.70;;;;;;;;;;5054797;28;20037;-74
2023/09/28 14:15:11;;;;;;;17.98;4.72;;;;;;;;;;5056288;28;20085;-74
2023/09/28 14:17:37;;;;;;;19.48;5.28;;;;;;;;;;5074529;28;20028;-75
2023/09/28 14:20:07;;;;;;;17.67;5.07;;;;;;;;;;5077345;28;20099;-75
2023/09/28 14:22:33;;;;;;;15.02;4.82;;;;;;;;;;5055438;28;20025;-73
2023/09/28 14:25:00;;;;;;;19.88;5.00;;;;;;;;;;5055035;28;20036;-74